Greenisland, United Kingdom
Current Conditions -  °F | °C
As of 10:50 AM on Wednesday 22 Oct 2014 (Local Time) from EGAC Reporting Station
Light Rain Light Rain  
Wind Chill: 10°   Ceiling: 4000
Heat Index: 10°   Visibility: 6mi
Dew Point:   Wind: 20mph
Humidity: 87%   Direction: 230°SW
Pressure: 30.12"   Gusts: NA
Location:  54.7°N, 5.87°W
Report Text: EGAC 220950Z 23017KT 9999 -RA FEW011 SCT025 BKN040 10/08 Q1020
Loading
Personal Weather Stations






























Interactive Weather Map
Tropical Storm Tracking
New forecast layout! Learn more

10-Day Weather Forecast

Advertisements
Track Severe Weather on mobile